sensor_id;sensor_type;location;lat;lon;timestamp;temperature;humidity
17399;DHT22;8817;48.170;8.592;2022-07-23T00:01:20;29.40;37.80
17399;DHT22;8817;48.170;8.592;2022-07-23T00:03:47;29.40;37.90
17399;DHT22;8817;48.170;8.592;2022-07-23T00:06:14;29.30;37.90
17399;DHT22;8817;48.170;8.592;2022-07-23T00:08:41;29.30;37.90
17399;DHT22;8817;48.170;8.592;2022-07-23T00:11:10;29.30;38.00
17399;DHT22;8817;48.170;8.592;2022-07-23T00:13:37;29.20;38.00
17399;DHT22;8817;48.170;8.592;2022-07-23T00:16:04;29.20;38.20
17399;DHT22;8817;48.170;8.592;2022-07-23T00:18:31;29.10;38.20
17399;DHT22;8817;48.170;8.592;2022-07-23T00:20:58;29.00;38.20
17399;DHT22;8817;48.170;8.592;2022-07-23T00:23:25;29.00;38.30
17399;DHT22;8817;48.170;8.592;2022-07-23T00:25:53;29.00;38.40
17399;DHT22;8817;48.170;8.592;2022-07-23T00:28:21;28.90;38.40
17399;DHT22;8817;48.170;8.592;2022-07-23T00:30:48;28.80;38.40
17399;DHT22;8817;48.170;8.592;2022-07-23T00:33:15;28.80;38.50
17399;DHT22;8817;48.170;8.592;2022-07-23T00:35:42;28.80;38.60
17399;DHT22;8817;48.170;8.592;2022-07-23T00:38:10;28.70;38.60
17399;DHT22;8817;48.170;8.592;2022-07-23T00:40:38;28.70;38.70
17399;DHT22;8817;48.170;8.592;2022-07-23T00:43:05;28.60;38.70
17399;DHT22;8817;48.170;8.592;2022-07-23T00:45:34;28.50;38.60
17399;DHT22;8817;48.170;8.592;2022-07-23T00:48:01;28.50;38.70
17399;DHT22;8817;48.170;8.592;2022-07-23T00:50:28;28.40;38.70
17399;DHT22;8817;48.170;8.592;2022-07-23T00:52:55;28.30;38.70
17399;DHT22;8817;48.170;8.592;2022-07-23T00:55:23;28.30;38.80
17399;DHT22;8817;48.170;8.592;2022-07-23T00:57:50;28.20;38.80
17399;DHT22;8817;48.170;8.592;2022-07-23T01:00:19;28.20;38.90
17399;DHT22;8817;48.170;8.592;2022-07-23T01:02:48;28.20;38.90
17399;DHT22;8817;48.170;8.592;2022-07-23T01:05:15;28.10;38.80
17399;DHT22;8817;48.170;8.592;2022-07-23T01:07:43;28.00;38.80
17399;DHT22;8817;48.170;8.592;2022-07-23T01:10:11;27.90;38.70
17399;DHT22;8817;48.170;8.592;2022-07-23T01:12:51;27.90;39.30
17399;DHT22;8817;48.170;8.592;2022-07-23T01:15:18;27.80;38.70
17399;DHT22;8817;48.170;8.592;2022-07-23T01:17:47;27.70;38.80
17399;DHT22;8817;48.170;8.592;2022-07-23T01:20:14;27.60;38.90
17399;DHT22;8817;48.170;8.592;2022-07-23T01:22:42;27.60;39.00
17399;DHT22;8817;48.170;8.592;2022-07-23T01:25:09;27.60;39.20
17399;DHT22;8817;48.170;8.592;2022-07-23T01:27:36;27.60;39.20
17399;DHT22;8817;48.170;8.592;2022-07-23T01:30:04;27.60;39.30
17399;DHT22;8817;48.170;8.592;2022-07-23T01:32:32;27.60;39.40
17399;DHT22;8817;48.170;8.592;2022-07-23T01:34:59;27.60;39.40
17399;DHT22;8817;48.170;8.592;2022-07-23T01:37:26;27.50;39.40
17399;DHT22;8817;48.170;8.592;2022-07-23T01:39:54;27.50;39.50
17399;DHT22;8817;48.170;8.592;2022-07-23T01:42:21;27.50;39.60
17399;DHT22;8817;48.170;8.592;2022-07-23T01:44:48;27.50;39.60
17399;DHT22;8817;48.170;8.592;2022-07-23T01:47:16;27.50;39.70
17399;DHT22;8817;48.170;8.592;2022-07-23T01:49:43;27.50;39.70
17399;DHT22;8817;48.170;8.592;2022-07-23T01:52:10;27.50;39.70
17399;DHT22;8817;48.170;8.592;2022-07-23T01:54:38;27.50;39.70
17399;DHT22;8817;48.170;8.592;2022-07-23T01:57:07;27.40;39.80
17399;DHT22;8817;48.170;8.592;2022-07-23T01:59:35;27.40;39.90
17399;DHT22;8817;48.170;8.592;2022-07-23T02:02:02;27.40;40.00
17399;DHT22;8817;48.170;8.592;2022-07-23T02:04:31;27.40;40.00
17399;DHT22;8817;48.170;8.592;2022-07-23T02:07:01;27.40;40.00
17399;DHT22;8817;48.170;8.592;2022-07-23T02:09:28;27.30;40.00
17399;DHT22;8817;48.170;8.592;2022-07-23T02:11:55;27.30;40.10
17399;DHT22;8817;48.170;8.592;2022-07-23T02:14:24;27.30;40.30
17399;DHT22;8817;48.170;8.592;2022-07-23T02:16:51;27.20;40.30
17399;DHT22;8817;48.170;8.592;2022-07-23T02:19:18;27.20;40.30
17399;DHT22;8817;48.170;8.592;2022-07-23T02:21:45;27.20;40.30
17399;DHT22;8817;48.170;8.592;2022-07-23T02:24:12;27.10;40.40
17399;DHT22;8817;48.170;8.592;2022-07-23T02:26:39;27.10;40.40
17399;DHT22;8817;48.170;8.592;2022-07-23T02:29:07;27.10;40.50
17399;DHT22;8817;48.170;8.592;2022-07-23T02:31:35;27.00;40.50
17399;DHT22;8817;48.170;8.592;2022-07-23T02:34:02;27.00;40.60
17399;DHT22;8817;48.170;8.592;2022-07-23T02:36:29;27.00;40.70
17399;DHT22;8817;48.170;8.592;2022-07-23T02:38:57;27.00;40.80
17399;DHT22;8817;48.170;8.592;2022-07-23T02:41:24;27.00;40.80
17399;DHT22;8817;48.170;8.592;2022-07-23T02:43:51;27.00;40.90
17399;DHT22;8817;48.170;8.592;2022-07-23T02:46:18;27.00;40.90
17399;DHT22;8817;48.170;8.592;2022-07-23T02:48:46;27.00;40.90
17399;DHT22;8817;48.170;8.592;2022-07-23T02:51:13;26.90;41.00
17399;DHT22;8817;48.170;8.592;2022-07-23T02:53:40;26.90;41.00
17399;DHT22;8817;48.170;8.592;2022-07-23T02:56:07;26.90;41.00
17399;DHT22;8817;48.170;8.592;2022-07-23T02:58:34;26.90;41.10
17399;DHT22;8817;48.170;8.592;2022-07-23T03:01:01;26.90;41.10
17399;DHT22;8817;48.170;8.592;2022-07-23T03:03:30;26.80;41.10
17399;DHT22;8817;48.170;8.592;2022-07-23T03:05:58;26.80;41.10
17399;DHT22;8817;48.170;8.592;2022-07-23T03:08:25;26.70;41.20
17399;DHT22;8817;48.170;8.592;2022-07-23T03:10:52;26.70;41.30
17399;DHT22;8817;48.170;8.592;2022-07-23T03:13:19;26.70;41.40
17399;DHT22;8817;48.170;8.592;2022-07-23T03:15:46;26.70;41.40
17399;DHT22;8817;48.170;8.592;2022-07-23T03:18:13;26.70;41.50
17399;DHT22;8817;48.170;8.592;2022-07-23T03:20:40;26.70;41.50
17399;DHT22;8817;48.170;8.592;2022-07-23T03:23:09;26.70;41.50
17399;DHT22;8817;48.170;8.592;2022-07-23T03:25:36;26.70;41.60
17399;DHT22;8817;48.170;8.592;2022-07-23T03:28:04;26.70;41.60
17399;DHT22;8817;48.170;8.592;2022-07-23T03:30:31;26.60;41.50
17399;DHT22;8817;48.170;8.592;2022-07-23T03:32:57;26.60;41.50
17399;DHT22;8817;48.170;8.592;2022-07-23T03:35:25;26.60;41.60
17399;DHT22;8817;48.170;8.592;2022-07-23T03:37:51;26.50;41.50
17399;DHT22;8817;48.170;8.592;2022-07-23T03:40:20;26.50;41.60
17399;DHT22;8817;48.170;8.592;2022-07-23T03:42:47;26.40;41.70
17399;DHT22;8817;48.170;8.592;2022-07-23T03:45:14;26.40;41.90
17399;DHT22;8817;48.170;8.592;2022-07-23T03:47:41;26.40;42.10
17399;DHT22;8817;48.170;8.592;2022-07-23T03:50:09;26.50;42.20
17399;DHT22;8817;48.170;8.592;2022-07-23T03:52:36;26.40;42.20
17399;DHT22;8817;48.170;8.592;2022-07-23T03:55:03;26.40;42.20
17399;DHT22;8817;48.170;8.592;2022-07-23T03:57:32;26.40;42.30
17399;DHT22;8817;48.170;8.592;2022-07-23T03:59:59;26.40;42.30
17399;DHT22;8817;48.170;8.592;2022-07-23T04:02:26;26.40;42.20
17399;DHT22;8817;48.170;8.592;2022-07-23T04:04:53;26.30;42.20
17399;DHT22;8817;48.170;8.592;2022-07-23T04:07:20;26.30;42.20
17399;DHT22;8817;48.170;8.592;2022-07-23T04:09:48;26.30;42.30
17399;DHT22;8817;48.170;8.592;2022-07-23T04:12:15;26.20;42.90
17399;DHT22;8817;48.170;8.592;2022-07-23T04:14:43;26.20;42.40
17399;DHT22;8817;48.170;8.592;2022-07-23T04:17:10;26.20;42.60
17399;DHT22;8817;48.170;8.592;2022-07-23T04:19:37;26.20;42.60
17399;DHT22;8817;48.170;8.592;2022-07-23T04:22:05;26.20;42.60
17399;DHT22;8817;48.170;8.592;2022-07-23T04:24:32;26.20;42.60
17399;DHT22;8817;48.170;8.592;2022-07-23T04:26:59;26.10;42.60
17399;DHT22;8817;48.170;8.592;2022-07-23T04:29:26;26.10;42.60
17399;DHT22;8817;48.170;8.592;2022-07-23T04:31:54;26.10;42.80
17399;DHT22;8817;48.170;8.592;2022-07-23T04:34:22;26.10;42.90
17399;DHT22;8817;48.170;8.592;2022-07-23T04:36:49;26.10;43.00
17399;DHT22;8817;48.170;8.592;2022-07-23T04:39:16;26.10;43.00
17399;DHT22;8817;48.170;8.592;2022-07-23T04:41:43;26.20;43.10
17399;DHT22;8817;48.170;8.592;2022-07-23T04:44:10;26.20;43.20
17399;DHT22;8817;48.170;8.592;2022-07-23T04:46:37;26.20;43.20
17399;DHT22;8817;48.170;8.592;2022-07-23T04:49:05;26.20;43.20
17399;DHT22;8817;48.170;8.592;2022-07-23T04:51:32;26.30;43.30
17399;DHT22;8817;48.170;8.592;2022-07-23T04:53:59;26.30;43.20
17399;DHT22;8817;48.170;8.592;2022-07-23T04:56:26;26.30;43.30
17399;DHT22;8817;48.170;8.592;2022-07-23T04:58:53;26.30;43.30
17399;DHT22;8817;48.170;8.592;2022-07-23T05:01:20;26.40;43.30
17399;DHT22;8817;48.170;8.592;2022-07-23T05:03:47;26.40;43.30
17399;DHT22;8817;48.170;8.592;2022-07-23T05:06:16;26.40;43.30
17399;DHT22;8817;48.170;8.592;2022-07-23T05:08:43;26.40;43.40
17399;DHT22;8817;48.170;8.592;2022-07-23T05:11:09;26.40;43.40
17399;DHT22;8817;48.170;8.592;2022-07-23T05:13:36;26.40;43.50
17399;DHT22;8817;48.170;8.592;2022-07-23T05:16:04;26.40;43.50
17399;DHT22;8817;48.170;8.592;2022-07-23T05:18:31;26.40;43.60
17399;DHT22;8817;48.170;8.592;2022-07-23T05:20:58;26.50;43.70
17399;DHT22;8817;48.170;8.592;2022-07-23T05:23:26;26.50;43.60
17399;DHT22;8817;48.170;8.592;2022-07-23T05:25:53;26.60;43.70
17399;DHT22;8817;48.170;8.592;2022-07-23T05:28:20;26.60;43.70
17399;DHT22;8817;48.170;8.592;2022-07-23T05:30:47;26.70;43.90
17399;DHT22;8817;48.170;8.592;2022-07-23T05:33:14;26.70;43.90
17399;DHT22;8817;48.170;8.592;2022-07-23T05:35:41;26.70;43.90
17399;DHT22;8817;48.170;8.592;2022-07-23T05:38:08;26.80;44.00
17399;DHT22;8817;48.170;8.592;2022-07-23T05:40:36;26.90;44.10
17399;DHT22;8817;48.170;8.592;2022-07-23T05:43:03;26.90;44.00
17399;DHT22;8817;48.170;8.592;2022-07-23T05:45:30;26.90;44.00
17399;DHT22;8817;48.170;8.592;2022-07-23T05:47:57;27.00;44.10
17399;DHT22;8817;48.170;8.592;2022-07-23T05:50:24;27.10;44.20
17399;DHT22;8817;48.170;8.592;2022-07-23T05:52:51;27.10;44.30
17399;DHT22;8817;48.170;8.592;2022-07-23T05:55:18;27.20;44.40
17399;DHT22;8817;48.170;8.592;2022-07-23T05:57:47;27.20;44.50
17399;DHT22;8817;48.170;8.592;2022-07-23T06:00:14;27.30;44.50
17399;DHT22;8817;48.170;8.592;2022-07-23T06:02:41;27.40;44.50
17399;DHT22;8817;48.170;8.592;2022-07-23T06:05:08;27.50;44.50
17399;DHT22;8817;48.170;8.592;2022-07-23T06:07:35;27.60;44.60
17399;DHT22;8817;48.170;8.592;2022-07-23T06:10:03;27.60;44.40
17399;DHT22;8817;48.170;8.592;2022-07-23T06:12:30;27.70;44.60
17399;DHT22;8817;48.170;8.592;2022-07-23T06:14:59;27.70;44.60
17399;DHT22;8817;48.170;8.592;2022-07-23T06:17:26;27.80;44.60
17399;DHT22;8817;48.170;8.592;2022-07-23T06:19:53;27.80;44.60
17399;DHT22;8817;48.170;8.592;2022-07-23T06:22:21;27.90;44.70
17399;DHT22;8817;48.170;8.592;2022-07-23T06:24:48;28.00;44.70
17399;DHT22;8817;48.170;8.592;2022-07-23T06:27:16;28.10;44.70
17399;DHT22;8817;48.170;8.592;2022-07-23T06:29:43;28.10;44.60
17399;DHT22;8817;48.170;8.592;2022-07-23T06:32:11;28.10;44.60
17399;DHT22;8817;48.170;8.592;2022-07-23T06:34:38;28.20;44.70
17399;DHT22;8817;48.170;8.592;2022-07-23T06:37:05;28.20;44.70
17399;DHT22;8817;48.170;8.592;2022-07-23T06:39:33;28.30;44.70
17399;DHT22;8817;48.170;8.592;2022-07-23T06:42:00;28.30;44.70
17399;DHT22;8817;48.170;8.592;2022-07-23T06:44:27;28.30;44.70
17399;DHT22;8817;48.170;8.592;2022-07-23T06:46:54;28.40;44.70
17399;DHT22;8817;48.170;8.592;2022-07-23T06:49:23;28.40;44.60
17399;DHT22;8817;48.170;8.592;2022-07-23T06:51:50;28.40;44.50
17399;DHT22;8817;48.170;8.592;2022-07-23T06:54:17;28.40;44.40
17399;DHT22;8817;48.170;8.592;2022-07-23T06:56:44;28.40;44.50
17399;DHT22;8817;48.170;8.592;2022-07-23T06:59:11;28.40;44.60
17399;DHT22;8817;48.170;8.592;2022-07-23T07:01:38;28.40;44.70
17399;DHT22;8817;48.170;8.592;2022-07-23T07:04:05;28.40;44.70
17399;DHT22;8817;48.170;8.592;2022-07-23T07:06:33;28.40;44.70
17399;DHT22;8817;48.170;8.592;2022-07-23T07:09:00;28.50;44.80
17399;DHT22;8817;48.170;8.592;2022-07-23T07:11:27;28.50;44.80
17399;DHT22;8817;48.170;8.592;2022-07-23T07:13:54;28.50;44.80
17399;DHT22;8817;48.170;8.592;2022-07-23T07:16:21;28.60;44.90
17399;DHT22;8817;48.170;8.592;2022-07-23T07:18:48;28.70;45.00
17399;DHT22;8817;48.170;8.592;2022-07-23T07:21:15;28.70;45.00
17399;DHT22;8817;48.170;8.592;2022-07-23T07:23:43;28.80;45.00
17399;DHT22;8817;48.170;8.592;2022-07-23T07:26:10;28.80;44.90
17399;DHT22;8817;48.170;8.592;2022-07-23T07:28:37;28.80;44.80
17399;DHT22;8817;48.170;8.592;2022-07-23T07:31:04;28.80;44.80
17399;DHT22;8817;48.170;8.592;2022-07-23T07:33:31;28.90;45.40
17399;DHT22;8817;48.170;8.592;2022-07-23T07:35:58;28.90;44.80
17399;DHT22;8817;48.170;8.592;2022-07-23T07:38:26;28.90;44.80
17399;DHT22;8817;48.170;8.592;2022-07-23T07:40:54;28.90;44.70
17399;DHT22;8817;48.170;8.592;2022-07-23T07:43:21;28.90;44.70
17399;DHT22;8817;48.170;8.592;2022-07-23T07:45:48;29.00;44.70
17399;DHT22;8817;48.170;8.592;2022-07-23T07:48:15;29.00;44.70
17399;DHT22;8817;48.170;8.592;2022-07-23T07:50:42;29.00;44.60
17399;DHT22;8817;48.170;8.592;2022-07-23T07:53:09;28.90;44.50
17399;DHT22;8817;48.170;8.592;2022-07-23T07:55:36;28.90;44.50
17399;DHT22;8817;48.170;8.592;2022-07-23T07:58:05;28.90;44.60
17399;DHT22;8817;48.170;8.592;2022-07-23T08:00:32;28.90;44.70
17399;DHT22;8817;48.170;8.592;2022-07-23T08:02:59;28.90;44.70
17399;DHT22;8817;48.170;8.592;2022-07-23T08:05:28;28.90;44.70
17399;DHT22;8817;48.170;8.592;2022-07-23T08:07:56;28.90;44.70
17399;DHT22;8817;48.170;8.592;2022-07-23T08:10:24;28.90;44.70
17399;DHT22;8817;48.170;8.592;2022-07-23T08:12:53;28.90;44.70
17399;DHT22;8817;48.170;8.592;2022-07-23T08:15:24;28.90;44.80
17399;DHT22;8817;48.170;8.592;2022-07-23T08:17:52;28.90;44.80
17399;DHT22;8817;48.170;8.592;2022-07-23T08:20:20;28.90;44.80
17399;DHT22;8817;48.170;8.592;2022-07-23T08:22:49;28.90;44.90
17399;DHT22;8817;48.170;8.592;2022-07-23T08:25:19;28.90;44.90
17399;DHT22;8817;48.170;8.592;2022-07-23T08:27:46;28.90;45.00
17399;DHT22;8817;48.170;8.592;2022-07-23T08:30:15;28.90;45.10
17399;DHT22;8817;48.170;8.592;2022-07-23T08:32:55;28.90;45.10
17399;DHT22;8817;48.170;8.592;2022-07-23T08:35:25;28.90;45.10
17399;DHT22;8817;48.170;8.592;2022-07-23T08:37:52;29.00;45.10
17399;DHT22;8817;48.170;8.592;2022-07-23T08:40:20;29.00;45.10
17399;DHT22;8817;48.170;8.592;2022-07-23T08:42:49;29.00;45.10
17399;DHT22;8817;48.170;8.592;2022-07-23T08:45:18;29.00;45.10
17399;DHT22;8817;48.170;8.592;2022-07-23T08:47:48;29.00;45.10
17399;DHT22;8817;48.170;8.592;2022-07-23T08:50:17;29.00;45.10
17399;DHT22;8817;48.170;8.592;2022-07-23T08:52:44;29.00;45.10
17399;DHT22;8817;48.170;8.592;2022-07-23T08:55:11;29.00;45.70
17399;DHT22;8817;48.170;8.592;2022-07-23T08:57:39;29.00;45.20
17399;DHT22;8817;48.170;8.592;2022-07-23T09:00:06;29.10;45.30
17399;DHT22;8817;48.170;8.592;2022-07-23T09:02:39;29.10;45.50
17399;DHT22;8817;48.170;8.592;2022-07-23T09:05:07;29.20;45.60
17399;DHT22;8817;48.170;8.592;2022-07-23T09:07:35;29.20;45.50
17399;DHT22;8817;48.170;8.592;2022-07-23T09:10:08;29.30;45.60
17399;DHT22;8817;48.170;8.592;2022-07-23T09:12:36;29.30;45.70
17399;DHT22;8817;48.170;8.592;2022-07-23T09:15:04;29.40;45.60
17399;DHT22;8817;48.170;8.592;2022-07-23T09:17:37;29.50;45.60
17399;DHT22;8817;48.170;8.592;2022-07-23T09:20:10;29.50;45.60
17399;DHT22;8817;48.170;8.592;2022-07-23T09:22:40;29.50;45.60
17399;DHT22;8817;48.170;8.592;2022-07-23T09:25:11;29.60;45.70
17399;DHT22;8817;48.170;8.592;2022-07-23T09:27:53;29.70;45.70
17399;DHT22;8817;48.170;8.592;2022-07-23T09:30:22;29.70;45.60
17399;DHT22;8817;48.170;8.592;2022-07-23T09:33:07;29.80;45.60
17399;DHT22;8817;48.170;8.592;2022-07-23T09:35:49;29.80;45.70
17399;DHT22;8817;48.170;8.592;2022-07-23T09:38:18;29.90;45.70
17399;DHT22;8817;48.170;8.592;2022-07-23T09:40:46;30.00;45.80
17399;DHT22;8817;48.170;8.592;2022-07-23T09:43:26;30.00;45.70
17399;DHT22;8817;48.170;8.592;2022-07-23T09:45:53;30.10;45.70
17399;DHT22;8817;48.170;8.592;2022-07-23T09:48:40;30.20;45.70
17399;DHT22;8817;48.170;8.592;2022-07-23T09:51:07;30.20;45.60
17399;DHT22;8817;48.170;8.592;2022-07-23T09:53:35;30.30;45.80
17399;DHT22;8817;48.170;8.592;2022-07-23T09:56:03;30.40;45.80
17399;DHT22;8817;48.170;8.592;2022-07-23T09:58:30;30.50;45.80
17399;DHT22;8817;48.170;8.592;2022-07-23T10:00:57;30.50;45.80
17399;DHT22;8817;48.170;8.592;2022-07-23T10:03:25;30.60;45.90
17399;DHT22;8817;48.170;8.592;2022-07-23T10:05:52;30.80;46.00
17399;DHT22;8817;48.170;8.592;2022-07-23T10:08:19;30.90;45.80
17399;DHT22;8817;48.170;8.592;2022-07-23T10:10:48;30.90;45.60
17399;DHT22;8817;48.170;8.592;2022-07-23T10:13:17;31.00;45.60
17399;DHT22;8817;48.170;8.592;2022-07-23T10:16:01;31.10;45.60
17399;DHT22;8817;48.170;8.592;2022-07-23T10:18:30;31.20;45.60
17399;DHT22;8817;48.170;8.592;2022-07-23T10:20:57;31.30;45.80
17399;DHT22;8817;48.170;8.592;2022-07-23T10:23:30;31.40;45.70
17399;DHT22;8817;48.170;8.592;2022-07-23T10:26:17;31.50;45.50
17399;DHT22;8817;48.170;8.592;2022-07-23T10:29:04;31.50;45.50
17399;DHT22;8817;48.170;8.592;2022-07-23T10:31:41;31.70;45.40
17399;DHT22;8817;48.170;8.592;2022-07-23T10:34:19;31.70;45.30
17399;DHT22;8817;48.170;8.592;2022-07-23T10:36:52;31.80;45.20
17399;DHT22;8817;48.170;8.592;2022-07-23T10:39:24;31.90;45.10
17399;DHT22;8817;48.170;8.592;2022-07-23T10:42:07;31.90;44.70
17399;DHT22;8817;48.170;8.592;2022-07-23T10:44:39;31.90;44.50
17399;DHT22;8817;48.170;8.592;2022-07-23T10:47:08;32.00;44.20
17399;DHT22;8817;48.170;8.592;2022-07-23T10:50:21;32.00;44.10
17399;DHT22;8817;48.170;8.592;2022-07-23T10:53:14;31.90;43.90
17399;DHT22;8817;48.170;8.592;2022-07-23T10:55:45;31.90;44.00
17399;DHT22;8817;48.170;8.592;2022-07-23T10:58:19;31.90;43.90
17399;DHT22;8817;48.170;8.592;2022-07-23T11:00:46;31.90;43.80
17399;DHT22;8817;48.170;8.592;2022-07-23T11:03:33;31.90;43.70
17399;DHT22;8817;48.170;8.592;2022-07-23T11:06:02;31.90;43.80
17399;DHT22;8817;48.170;8.592;2022-07-23T11:08:29;31.90;43.70
17399;DHT22;8817;48.170;8.592;2022-07-23T11:11:09;31.90;43.70
17399;DHT22;8817;48.170;8.592;2022-07-23T11:13:42;32.00;43.80
17399;DHT22;8817;48.170;8.592;2022-07-23T11:16:22;32.10;43.80
17399;DHT22;8817;48.170;8.592;2022-07-23T11:19:17;32.10;43.60
17399;DHT22;8817;48.170;8.592;2022-07-23T11:21:50;32.20;43.50
17399;DHT22;8817;48.170;8.592;2022-07-23T11:24:22;32.30;43.20
17399;DHT22;8817;48.170;8.592;2022-07-23T11:27:00;32.20;43.00
17399;DHT22;8817;48.170;8.592;2022-07-23T11:29:48;32.20;42.90
17399;DHT22;8817;48.170;8.592;2022-07-23T11:32:39;32.20;43.00
17399;DHT22;8817;48.170;8.592;2022-07-23T11:35:22;32.10;42.80
17399;DHT22;8817;48.170;8.592;2022-07-23T11:37:51;32.10;42.80
17399;DHT22;8817;48.170;8.592;2022-07-23T11:40:24;32.10;42.70
17399;DHT22;8817;48.170;8.592;2022-07-23T11:42:58;32.00;42.60
17399;DHT22;8817;48.170;8.592;2022-07-23T11:45:31;31.90;42.60
17399;DHT22;8817;48.170;8.592;2022-07-23T11:47:58;32.00;42.70
17399;DHT22;8817;48.170;8.592;2022-07-23T11:50:26;32.00;42.80
17399;DHT22;8817;48.170;8.592;2022-07-23T11:52:53;32.10;42.90
17399;DHT22;8817;48.170;8.592;2022-07-23T11:55:20;32.10;43.10
17399;DHT22;8817;48.170;8.592;2022-07-23T11:57:49;32.20;43.20
17399;DHT22;8817;48.170;8.592;2022-07-23T12:00:18;32.40;43.20
17399;DHT22;8817;48.170;8.592;2022-07-23T12:02:48;32.50;43.10
17399;DHT22;8817;48.170;8.592;2022-07-23T12:05:17;32.60;43.00
17399;DHT22;8817;48.170;8.592;2022-07-23T12:07:45;32.70;42.90
17399;DHT22;8817;48.170;8.592;2022-07-23T12:10:17;32.80;42.80
17399;DHT22;8817;48.170;8.592;2022-07-23T12:12:46;32.90;42.80
17399;DHT22;8817;48.170;8.592;2022-07-23T12:15:16;33.10;42.70
17399;DHT22;8817;48.170;8.592;2022-07-23T12:17:45;33.20;42.60
17399;DHT22;8817;48.170;8.592;2022-07-23T12:20:16;33.30;42.40
17399;DHT22;8817;48.170;8.592;2022-07-23T12:22:45;33.30;42.00
17399;DHT22;8817;48.170;8.592;2022-07-23T12:25:13;33.40;42.00
17399;DHT22;8817;48.170;8.592;2022-07-23T12:27:41;33.40;41.90
17399;DHT22;8817;48.170;8.592;2022-07-23T12:30:19;33.50;41.80
17399;DHT22;8817;48.170;8.592;2022-07-23T12:32:49;33.50;41.70
17399;DHT22;8817;48.170;8.592;2022-07-23T12:35:18;33.50;41.50
17399;DHT22;8817;48.170;8.592;2022-07-23T12:37:46;33.50;41.50
17399;DHT22;8817;48.170;8.592;2022-07-23T12:40:25;33.60;41.50
17399;DHT22;8817;48.170;8.592;2022-07-23T12:42:55;33.60;41.50
17399;DHT22;8817;48.170;8.592;2022-07-23T12:45:22;33.60;41.40
17399;DHT22;8817;48.170;8.592;2022-07-23T12:48:01;33.60;41.30
17399;DHT22;8817;48.170;8.592;2022-07-23T12:50:43;33.60;41.80
17399;DHT22;8817;48.170;8.592;2022-07-23T12:53:16;33.70;41.20
17399;DHT22;8817;48.170;8.592;2022-07-23T12:55:44;33.70;41.30
17399;DHT22;8817;48.170;8.592;2022-07-23T12:58:14;33.80;41.00
17399;DHT22;8817;48.170;8.592;2022-07-23T13:00:53;33.80;40.70
17399;DHT22;8817;48.170;8.592;2022-07-23T13:03:25;33.80;40.60
17399;DHT22;8817;48.170;8.592;2022-07-23T13:05:53;33.90;40.40
17399;DHT22;8817;48.170;8.592;2022-07-23T13:08:21;33.80;40.30
17399;DHT22;8817;48.170;8.592;2022-07-23T13:10:48;33.80;40.20
17399;DHT22;8817;48.170;8.592;2022-07-23T13:13:17;33.70;40.10
17399;DHT22;8817;48.170;8.592;2022-07-23T13:15:46;33.70;40.10
17399;DHT22;8817;48.170;8.592;2022-07-23T13:18:13;33.70;40.10
17399;DHT22;8817;48.170;8.592;2022-07-23T13:20:40;33.70;40.10
17399;DHT22;8817;48.170;8.592;2022-07-23T13:23:08;33.70;40.00
17399;DHT22;8817;48.170;8.592;2022-07-23T13:25:35;33.80;40.00
17399;DHT22;8817;48.170;8.592;2022-07-23T13:28:03;33.80;40.00
17399;DHT22;8817;48.170;8.592;2022-07-23T13:30:30;33.90;40.10
17399;DHT22;8817;48.170;8.592;2022-07-23T13:32:57;33.90;39.90
17399;DHT22;8817;48.170;8.592;2022-07-23T13:35:24;33.90;39.70
17399;DHT22;8817;48.170;8.592;2022-07-23T13:37:51;34.00;39.70
17399;DHT22;8817;48.170;8.592;2022-07-23T13:40:20;34.00;39.80
17399;DHT22;8817;48.170;8.592;2022-07-23T13:42:47;34.10;39.80
17399;DHT22;8817;48.170;8.592;2022-07-23T13:45:14;34.20;40.00
17399;DHT22;8817;48.170;8.592;2022-07-23T13:47:41;34.30;40.00
17399;DHT22;8817;48.170;8.592;2022-07-23T13:50:08;34.50;39.90
17399;DHT22;8817;48.170;8.592;2022-07-23T13:52:35;34.60;39.80
17399;DHT22;8817;48.170;8.592;2022-07-23T13:55:02;34.70;39.60
17399;DHT22;8817;48.170;8.592;2022-07-23T13:57:31;34.80;39.50
17399;DHT22;8817;48.170;8.592;2022-07-23T13:59:58;34.90;39.40
17399;DHT22;8817;48.170;8.592;2022-07-23T14:02:25;35.10;39.50
17399;DHT22;8817;48.170;8.592;2022-07-23T14:04:53;35.10;39.40
17399;DHT22;8817;48.170;8.592;2022-07-23T14:07:20;35.20;39.30
17399;DHT22;8817;48.170;8.592;2022-07-23T14:09:47;35.30;39.20
17399;DHT22;8817;48.170;8.592;2022-07-23T14:12:14;35.40;39.00
17399;DHT22;8817;48.170;8.592;2022-07-23T14:14:43;35.50;38.80
17399;DHT22;8817;48.170;8.592;2022-07-23T14:17:10;35.50;38.70
17399;DHT22;8817;48.170;8.592;2022-07-23T14:19:37;35.60;38.60
17399;DHT22;8817;48.170;8.592;2022-07-23T14:22:04;35.70;38.30
17399;DHT22;8817;48.170;8.592;2022-07-23T14:24:31;35.60;38.00
17399;DHT22;8817;48.170;8.592;2022-07-23T14:27:01;35.60;37.80
17399;DHT22;8817;48.170;8.592;2022-07-23T14:29:30;35.50;37.60
17399;DHT22;8817;48.170;8.592;2022-07-23T14:31:59;35.50;37.60
17399;DHT22;8817;48.170;8.592;2022-07-23T14:34:26;35.40;37.60
17399;DHT22;8817;48.170;8.592;2022-07-23T14:36:53;35.40;37.70
17399;DHT22;8817;48.170;8.592;2022-07-23T14:39:20;35.50;37.70
17399;DHT22;8817;48.170;8.592;2022-07-23T14:41:47;35.50;37.30
17399;DHT22;8817;48.170;8.592;2022-07-23T14:44:14;35.50;37.30
17399;DHT22;8817;48.170;8.592;2022-07-23T14:46:41;35.40;37.20
17399;DHT22;8817;48.170;8.592;2022-07-23T14:49:10;35.50;37.20
17399;DHT22;8817;48.170;8.592;2022-07-23T14:51:37;35.40;37.10
17399;DHT22;8817;48.170;8.592;2022-07-23T14:54:04;35.50;37.30
17399;DHT22;8817;48.170;8.592;2022-07-23T14:56:32;35.50;37.10
17399;DHT22;8817;48.170;8.592;2022-07-23T14:59:01;35.60;37.20
17399;DHT22;8817;48.170;8.592;2022-07-23T15:01:28;35.60;37.10
17399;DHT22;8817;48.170;8.592;2022-07-23T15:03:55;35.60;37.00
17399;DHT22;8817;48.170;8.592;2022-07-23T15:06:24;35.70;36.80
17399;DHT22;8817;48.170;8.592;2022-07-23T15:08:51;35.70;36.70
17399;DHT22;8817;48.170;8.592;2022-07-23T15:11:18;35.70;36.60
17399;DHT22;8817;48.170;8.592;2022-07-23T15:13:46;35.70;36.60
17399;DHT22;8817;48.170;8.592;2022-07-23T15:16:13;35.70;36.40
17399;DHT22;8817;48.170;8.592;2022-07-23T15:18:40;35.70;36.30
17399;DHT22;8817;48.170;8.592;2022-07-23T15:21:07;35.70;36.10
17399;DHT22;8817;48.170;8.592;2022-07-23T15:23:36;35.70;36.10
17399;DHT22;8817;48.170;8.592;2022-07-23T15:26:06;35.70;36.00
17399;DHT22;8817;48.170;8.592;2022-07-23T15:28:34;35.70;36.00
17399;DHT22;8817;48.170;8.592;2022-07-23T15:31:01;35.70;35.90
17399;DHT22;8817;48.170;8.592;2022-07-23T15:33:28;35.70;35.80
17399;DHT22;8817;48.170;8.592;2022-07-23T15:35:55;35.60;35.70
17399;DHT22;8817;48.170;8.592;2022-07-23T15:38:24;35.60;35.70
17399;DHT22;8817;48.170;8.592;2022-07-23T15:40:53;35.60;35.60
17399;DHT22;8817;48.170;8.592;2022-07-23T15:43:20;35.60;35.50
17399;DHT22;8817;48.170;8.592;2022-07-23T15:45:48;35.60;35.40
17399;DHT22;8817;48.170;8.592;2022-07-23T15:48:15;35.50;35.00
17399;DHT22;8817;48.170;8.592;2022-07-23T15:50:42;35.40;34.80
17399;DHT22;8817;48.170;8.592;2022-07-23T15:53:09;35.20;34.60
17399;DHT22;8817;48.170;8.592;2022-07-23T15:55:36;35.10;34.50